sensor_id;sensor_type;location;lat;lon;timestamp;P1;P4;P2;P0;N10;N4;N25;N1;N05;TS
74572;SPS30;63071;51.526;-0.134;2023-01-13T00:00:01;4.78;4.62;4.29;3.67;29.36;29.34;29.26;28.81;24.01;0.54
74572;SPS30;63071;51.526;-0.134;2023-01-13T00:02:28;4.68;4.53;4.22;3.63;28.98;28.96;28.89;28.45;23.74;0.56
74572;SPS30;63071;51.526;-0.134;2023-01-13T00:04:54;5.26;5.07;4.67;3.97;31.72;31.69;31.60;31.07;25.83;0.58
74572;SPS30;63071;51.526;-0.134;2023-01-13T00:07:19;4.91;4.75;4.41;3.78;30.18;30.17;30.08;29.62;24.68;0.56
74572;SPS30;63071;51.526;-0.134;2023-01-13T00:09:45;4.58;4.45;4.16;3.61;28.81;28.79;28.72;28.33;23.68;0.55
74572;SPS30;63071;51.526;-0.134;2023-01-13T00:12:10;4.61;4.49;4.22;3.70;29.53;29.51;29.45;29.08;24.36;0.54
74572;SPS30;63071;51.526;-0.134;2023-01-13T00:14:36;4.51;4.40;4.17;3.68;29.41;29.39;29.34;29.00;24.35;0.52
74572;SPS30;63071;51.526;-0.134;2023-01-13T00:17:04;4.57;4.45;4.17;3.63;29.03;29.01;28.94;28.56;23.90;0.53
74572;SPS30;63071;51.526;-0.134;2023-01-13T00:19:29;4.56;4.41;4.10;3.53;28.20;28.18;28.11;27.69;23.10;0.54
74572;SPS30;63071;51.526;-0.134;2023-01-13T00:21:55;4.87;4.70;4.35;3.70;29.61;29.59;29.51;29.03;24.16;0.57
74572;SPS30;63071;51.526;-0.134;2023-01-13T00:24:20;4.72;4.60;4.33;3.79;30.30;30.28;30.22;29.84;25.01;0.55
74572;SPS30;63071;51.526;-0.134;2023-01-13T00:26:46;4.38;4.29;4.10;3.66;29.27;29.26;29.21;28.93;24.36;0.53
74572;SPS30;63071;51.526;-0.134;2023-01-13T00:29:11;4.07;4.00;3.85;3.47;27.74;27.73;27.69;27.46;23.17;0.52
74572;SPS30;63071;51.526;-0.134;2023-01-13T00:31:37;4.52;4.45;4.28;3.86;30.85;30.84;30.80;30.54;25.78;0.53
74572;SPS30;63071;51.526;-0.134;2023-01-13T00:34:02;3.97;3.91;3.78;3.43;27.37;27.36;27.33;27.12;22.92;0.51
74572;SPS30;63071;51.526;-0.134;2023-01-13T00:36:28;3.99;3.92;3.76;3.39;27.04;27.03;26.99;26.75;22.57;0.53
74572;SPS30;63071;51.526;-0.134;2023-01-13T00:38:55;3.72;3.65;3.49;3.13;24.97;24.96;24.92;24.69;20.80;0.55
74572;SPS30;63071;51.526;-0.134;2023-01-13T00:41:21;3.88;3.78;3.55;3.10;24.73;24.72;24.67;24.35;20.38;0.57
74572;SPS30;63071;51.526;-0.134;2023-01-13T00:43:49;3.96;3.84;3.57;3.06;24.49;24.47;24.41;24.04;20.05;0.59
74572;SPS30;63071;51.526;-0.134;2023-01-13T00:46:16;4.36;4.20;3.87;3.28;26.22;26.20;26.12;25.67;21.33;0.58
74572;SPS30;63071;51.526;-0.134;2023-01-13T00:48:44;4.10;3.97;3.69;3.16;25.29;25.28;25.21;24.83;20.70;0.55
74572;SPS30;63071;51.526;-0.134;2023-01-13T00:51:11;4.21;4.08;3.80;3.28;26.18;26.16;26.09;25.71;21.46;0.56
74572;SPS30;63071;51.526;-0.134;2023-01-13T00:53:39;4.08;3.96;3.71;3.21;25.67;25.66;25.60;25.24;21.10;0.55
74572;SPS30;63071;51.526;-0.134;2023-01-13T00:56:10;3.90;3.77;3.50;3.01;24.02;24.01;23.95;23.58;19.66;0.57
74572;SPS30;63071;51.526;-0.134;2023-01-13T00:58:38;4.25;4.11;3.81;3.26;26.04;26.02;25.95;25.54;21.28;0.58
74572;SPS30;63071;51.526;-0.134;2023-01-13T01:01:06;3.84;3.73;3.51;3.06;24.49;24.48;24.42;24.11;20.19;0.55
74572;SPS30;63071;51.526;-0.134;2023-01-13T01:03:34;3.78;3.70;3.54;3.16;25.22;25.21;25.17;24.92;20.98;0.53
74572;SPS30;63071;51.526;-0.134;2023-01-13T01:06:05;3.91;3.84;3.68;3.31;26.41;26.40;26.36;26.12;22.02;0.53
74572;SPS30;63071;51.526;-0.134;2023-01-13T01:08:32;3.67;3.62;3.51;3.19;25.47;25.46;25.43;25.24;21.35;0.52
74572;SPS30;63071;51.526;-0.134;2023-01-13T01:11:00;3.64;3.59;3.46;3.13;25.04;25.03;25.00;24.80;20.95;0.51
74572;SPS30;63071;51.526;-0.134;2023-01-13T01:13:30;3.48;3.43;3.31;3.00;23.94;23.93;23.90;23.71;20.03;0.53
74572;SPS30;63071;51.526;-0.134;2023-01-13T01:15:56;3.20;3.15;3.05;2.77;22.11;22.10;22.08;21.91;18.52;0.53
74572;SPS30;63071;51.526;-0.134;2023-01-13T01:18:21;3.20;3.14;3.00;2.69;21.47;21.46;21.43;21.22;17.88;0.54
74572;SPS30;63071;51.526;-0.134;2023-01-13T01:20:47;3.19;3.12;2.97;2.64;21.10;21.09;21.05;20.83;17.52;0.55
74572;SPS30;63071;51.526;-0.134;2023-01-13T01:23:12;3.85;3.74;3.52;3.08;24.61;24.60;24.54;24.23;20.30;0.57
74572;SPS30;63071;51.526;-0.134;2023-01-13T01:25:38;3.24;3.16;2.98;2.62;20.93;20.92;20.87;20.62;17.29;0.56
74572;SPS30;63071;51.526;-0.134;2023-01-13T01:28:03;3.31;3.22;3.03;2.65;21.14;21.13;21.09;20.82;17.43;0.55
74572;SPS30;63071;51.526;-0.134;2023-01-13T01:30:28;3.61;3.50;3.26;2.82;22.54;22.53;22.47;22.15;18.50;0.56
74572;SPS30;63071;51.526;-0.134;2023-01-13T01:32:54;4.07;3.95;3.70;3.22;25.73;25.72;25.66;25.32;21.18;0.56
74572;SPS30;63071;51.526;-0.134;2023-01-13T01:35:21;3.47;3.38;3.19;2.80;22.35;22.34;22.29;22.02;18.46;0.56
74572;SPS30;63071;51.526;-0.134;2023-01-13T01:37:48;3.61;3.53;3.35;2.97;23.71;23.70;23.66;23.40;19.67;0.54
74572;SPS30;63071;51.526;-0.134;2023-01-13T01:40:14;3.31;3.24;3.09;2.75;21.98;21.97;21.94;21.71;18.27;0.53
74572;SPS30;63071;51.526;-0.134;2023-01-13T01:42:39;3.32;3.26;3.14;2.83;22.58;22.57;22.54;22.34;18.85;0.53
74572;SPS30;63071;51.526;-0.134;2023-01-13T01:45:24;3.45;3.38;3.24;2.90;23.15;23.14;23.10;22.89;19.28;0.54
74572;SPS30;63071;51.526;-0.134;2023-01-13T01:47:53;3.23;3.16;3.01;2.67;21.30;21.29;21.25;21.03;17.68;0.55
74572;SPS30;63071;51.526;-0.134;2023-01-13T01:50:24;3.31;3.22;3.04;2.66;21.28;21.27;21.23;20.97;17.57;0.56
74572;SPS30;63071;51.526;-0.134;2023-01-13T01:52:53;3.39;3.30;3.13;2.75;22.01;22.00;21.96;21.70;18.21;0.57
74572;SPS30;63071;51.526;-0.134;2023-01-13T01:55:28;3.09;3.02;2.87;2.55;20.35;20.34;20.31;20.09;16.89;0.56
74572;SPS30;63071;51.526;-0.134;2023-01-13T02:00:36;3.14;3.06;2.91;2.58;20.58;20.57;20.53;20.30;17.06;0.54
74572;SPS30;63071;51.526;-0.134;2023-01-13T02:03:01;3.38;3.29;3.11;2.74;21.86;21.85;21.80;21.55;18.07;0.56
74572;SPS30;63071;51.526;-0.134;2023-01-13T02:05:28;3.22;3.13;2.92;2.52;20.18;20.16;20.12;19.83;16.57;0.57
74572;SPS30;63071;51.526;-0.134;2023-01-13T02:07:54;3.26;3.17;2.97;2.59;20.68;20.67;20.62;20.35;17.03;0.56
74572;SPS30;63071;51.526;-0.134;2023-01-13T02:10:24;3.39;3.30;3.10;2.71;21.66;21.65;21.60;21.33;17.86;0.55
74572;SPS30;63071;51.526;-0.134;2023-01-13T02:12:52;3.13;3.06;2.93;2.61;20.88;20.87;20.84;20.63;17.38;0.51
74572;SPS30;63071;51.526;-0.134;2023-01-13T02:15:27;2.65;2.61;2.52;2.28;18.20;18.20;18.17;18.03;15.23;0.52
74572;SPS30;63071;51.526;-0.134;2023-01-13T02:24:17;2.98;2.92;2.79;2.49;19.92;19.91;19.88;19.69;16.58;0.52
74572;SPS30;63071;51.526;-0.134;2023-01-13T02:30:14;3.16;3.06;2.86;2.46;19.68;19.67;19.62;19.33;16.14;0.56
74572;SPS30;63071;51.526;-0.134;2023-01-13T02:36:00;3.29;3.19;2.98;2.58;20.60;20.58;20.53;20.25;16.92;0.57
74572;SPS30;63071;51.526;-0.134;2023-01-13T02:38:37;3.06;2.96;2.74;2.34;18.71;18.70;18.65;18.35;15.29;0.57
74572;SPS30;63071;51.526;-0.134;2023-01-13T02:41:19;3.44;3.33;3.09;2.64;21.09;21.07;21.02;20.69;17.23;0.58
74572;SPS30;63071;51.526;-0.134;2023-01-13T02:44:29;3.27;3.15;2.91;2.48;19.83;19.81;19.76;19.44;16.17;0.59
74572;SPS30;63071;51.526;-0.134;2023-01-13T02:47:09;3.28;3.16;2.90;2.45;19.61;19.59;19.53;19.19;15.93;0.59
74572;SPS30;63071;51.526;-0.134;2023-01-13T02:49:41;3.16;3.05;2.83;2.42;19.35;19.34;19.29;18.99;15.82;0.57
74572;SPS30;63071;51.526;-0.134;2023-01-13T02:52:25;2.98;2.90;2.71;2.36;18.83;18.82;18.78;18.52;15.49;0.57
74572;SPS30;63071;51.526;-0.134;2023-01-13T02:54:58;3.15;3.08;2.91;2.57;20.51;20.50;20.46;20.22;16.97;0.57
74572;SPS30;63071;51.526;-0.134;2023-01-13T02:57:31;3.21;3.13;2.95;2.59;20.72;20.71;20.67;20.42;17.12;0.58
74572;SPS30;63071;51.526;-0.134;2023-01-13T03:00:03;3.48;3.36;3.11;2.65;21.16;21.15;21.09;20.75;17.26;0.59
74572;SPS30;63071;51.526;-0.134;2023-01-13T03:02:31;3.33;3.21;2.95;2.50;19.96;19.94;19.88;19.54;16.23;0.59
74572;SPS30;63071;51.526;-0.134;2023-01-13T03:04:57;3.24;3.13;2.88;2.45;19.60;19.58;19.53;19.20;15.97;0.58
74572;SPS30;63071;51.526;-0.134;2023-01-13T03:10:06;3.21;3.09;2.85;2.41;19.29;19.28;19.22;18.90;15.70;0.57
74572;SPS30;63071;51.526;-0.134;2023-01-13T03:15:53;3.36;3.23;2.95;2.47;19.72;19.70;19.64;19.27;15.96;0.59
74572;SPS30;63071;51.526;-0.134;2023-01-13T03:21:24;3.34;3.21;2.93;2.45;19.62;19.61;19.54;19.18;15.88;0.60
74572;SPS30;63071;51.526;-0.134;2023-01-13T03:24:01;3.20;3.08;2.82;2.38;19.00;18.99;18.93;18.59;15.42;0.58
74572;SPS30;63071;51.526;-0.134;2023-01-13T03:26:38;3.50;3.36;3.05;2.53;20.21;20.19;20.12;19.72;16.29;0.61
74572;SPS30;63071;51.526;-0.134;2023-01-13T03:34:32;3.19;3.06;2.76;2.27;18.15;18.13;18.07;17.68;14.58;0.60
74572;SPS30;63071;51.526;-0.134;2023-01-13T03:37:04;3.34;3.19;2.88;2.36;18.86;18.84;18.77;18.37;15.13;0.61
74572;SPS30;63071;51.526;-0.134;2023-01-13T03:39:34;3.00;2.87;2.59;2.12;16.98;16.96;16.90;16.53;13.62;0.62
74572;SPS30;63071;51.526;-0.134;2023-01-13T03:42:10;3.06;2.93;2.65;2.19;17.47;17.46;17.40;17.03;14.05;0.62
74572;SPS30;63071;51.526;-0.134;2023-01-13T03:44:47;3.33;3.18;2.88;2.37;18.93;18.91;18.84;18.44;15.21;0.63
74572;SPS30;63071;51.526;-0.134;2023-01-13T03:47:35;3.43;3.28;2.94;2.40;19.20;19.18;19.11;18.68;15.36;0.63
74572;SPS30;63071;51.526;-0.134;2023-01-13T03:50:22;3.43;3.25;2.88;2.30;18.41;18.39;18.30;17.83;14.57;0.65
74572;SPS30;63071;51.526;-0.134;2023-01-13T03:52:54;3.45;3.28;2.92;2.34;18.74;18.72;18.63;18.17;14.87;0.65
74572;SPS30;63071;51.526;-0.134;2023-01-13T03:55:27;3.58;3.40;3.01;2.40;19.16;19.14;19.06;18.56;15.16;0.67
74572;SPS30;63071;51.526;-0.134;2023-01-13T03:58:06;3.69;3.50;3.09;2.45;19.59;19.56;19.47;18.95;15.46;0.67
74572;SPS30;63071;51.526;-0.134;2023-01-13T04:00:42;3.52;3.35;2.97;2.38;19.05;19.03;18.95;18.47;15.11;0.67
74572;SPS30;63071;51.526;-0.134;2023-01-13T04:03:22;3.35;3.18;2.82;2.25;17.96;17.94;17.86;17.40;14.22;0.67
74572;SPS30;63071;51.526;-0.134;2023-01-13T04:05:57;3.22;3.06;2.71;2.16;17.28;17.26;17.18;16.73;13.67;0.66
74572;SPS30;63071;51.526;-0.134;2023-01-13T04:08:36;3.29;3.14;2.81;2.29;18.29;18.27;18.20;17.78;14.62;0.64
74572;SPS30;63071;51.526;-0.134;2023-01-13T04:11:23;3.49;3.32;2.94;2.35;18.78;18.76;18.67;18.19;14.87;0.65
74572;SPS30;63071;51.526;-0.134;2023-01-13T04:14:14;3.62;3.46;3.11;2.54;20.33;20.31;20.23;19.78;16.27;0.63
74572;SPS30;63071;51.526;-0.134;2023-01-13T04:16:44;3.74;3.55;3.16;2.54;20.28;20.26;20.17;19.67;16.10;0.66
74572;SPS30;63071;51.526;-0.134;2023-01-13T04:19:09;3.27;3.12;2.79;2.27;18.18;18.17;18.09;17.68;14.53;0.64
74572;SPS30;63071;51.526;-0.134;2023-01-13T04:21:35;3.37;3.21;2.85;2.29;18.31;18.29;18.21;17.75;14.54;0.64
74572;SPS30;63071;51.526;-0.134;2023-01-13T04:24:00;3.42;3.25;2.90;2.33;18.67;18.65;18.57;18.11;14.84;0.63
74572;SPS30;63071;51.526;-0.134;2023-01-13T04:26:25;3.35;3.19;2.84;2.29;18.35;18.33;18.26;17.81;14.61;0.62
74572;SPS30;63071;51.526;-0.134;2023-01-13T04:28:51;3.45;3.28;2.91;2.34;18.71;18.69;18.61;18.15;14.86;0.62
74572;SPS30;63071;51.526;-0.134;2023-01-13T04:31:19;3.31;3.15;2.79;2.24;17.91;17.89;17.81;17.36;14.21;0.62
74572;SPS30;63071;51.526;-0.134;2023-01-13T04:33:44;3.14;2.99;2.67;2.16;17.29;17.27;17.20;16.79;13.77;0.61
74572;SPS30;63071;51.526;-0.134;2023-01-13T04:36:10;3.37;3.20;2.84;2.27;18.14;18.12;18.04;17.58;14.37;0.63
74572;SPS30;63071;51.526;-0.134;2023-01-13T04:38:35;3.48;3.29;2.90;2.30;18.38;18.36;18.27;17.78;14.49;0.65
74572;SPS30;63071;51.526;-0.134;2023-01-13T04:41:01;3.12;2.97;2.63;2.10;16.82;16.80;16.72;16.30;13.33;0.64
74572;SPS30;63071;51.526;-0.134;2023-01-13T04:43:26;3.47;3.29;2.91;2.32;18.57;18.55;18.47;17.99;14.70;0.65
74572;SPS30;63071;51.526;-0.134;2023-01-13T04:45:52;3.49;3.31;2.92;2.32;18.53;18.51;18.42;17.93;14.63;0.65
74572;SPS30;63071;51.526;-0.134;2023-01-13T04:48:17;3.63;3.44;3.03;2.40;19.17;19.15;19.06;18.54;15.11;0.65
74572;SPS30;63071;51.526;-0.134;2023-01-13T04:50:43;3.98;3.75;3.27;2.53;20.28;20.25;20.14;19.53;15.83;0.66
74572;SPS30;63071;51.526;-0.134;2023-01-13T04:53:08;3.75;3.54;3.10;2.43;19.40;19.38;19.28;18.73;15.22;0.65
74572;SPS30;63071;51.526;-0.134;2023-01-13T04:55:34;3.61;3.43;3.02;2.40;19.19;19.17;19.08;18.57;15.15;0.64
74572;SPS30;63071;51.526;-0.134;2023-01-13T04:58:03;3.29;3.11;2.72;2.14;17.11;17.09;17.00;16.52;13.44;0.65
74572;SPS30;63071;51.526;-0.134;2023-01-13T05:00:30;3.49;3.30;2.88;2.25;17.99;17.97;17.88;17.35;14.09;0.65
74572;SPS30;63071;51.526;-0.134;2023-01-13T05:02:56;3.25;3.07;2.69;2.11;16.85;16.83;16.74;16.26;13.21;0.64
74572;SPS30;63071;51.526;-0.134;2023-01-13T05:05:22;3.60;3.41;3.01;2.38;19.06;19.04;18.95;18.44;15.04;0.62
74572;SPS30;63071;51.526;-0.134;2023-01-13T05:07:47;3.70;3.50;3.05;2.37;18.94;18.92;18.82;18.25;14.80;0.64
74572;SPS30;63071;51.526;-0.134;2023-01-13T05:10:13;4.05;3.80;3.25;2.44;19.54;19.52;19.40;18.71;15.02;0.68
74572;SPS30;63071;51.526;-0.134;2023-01-13T05:12:39;3.98;3.72;3.17;2.36;18.88;18.85;18.73;18.04;14.43;0.70
74572;SPS30;63071;51.526;-0.134;2023-01-13T05:15:23;4.10;3.84;3.29;2.48;19.85;19.83;19.70;19.02;15.27;0.68
74572;SPS30;63071;51.526;-0.134;2023-01-13T05:18:07;3.55;3.34;2.89;2.21;17.72;17.70;17.60;17.03;13.75;0.67
74572;SPS30;63071;51.526;-0.134;2023-01-13T05:20:33;3.93;3.71;3.24;2.53;20.25;20.22;20.12;19.53;15.86;0.65
74572;SPS30;63071;51.526;-0.134;2023-01-13T05:22:59;3.37;3.17;2.74;2.10;16.82;16.80;16.70;16.16;13.05;0.67
74572;SPS30;63071;51.526;-0.134;2023-01-13T05:25:43;3.64;3.42;2.94;2.24;17.96;17.94;17.83;17.24;13.90;0.67
74572;SPS30;63071;51.526;-0.134;2023-01-13T05:28:12;3.86;3.62;3.10;2.34;18.71;18.68;18.57;17.92;14.40;0.68
74572;SPS30;63071;51.526;-0.134;2023-01-13T05:30:38;3.59;3.38;2.93;2.25;18.01;17.98;17.88;17.32;13.99;0.67
74572;SPS30;63071;51.526;-0.134;2023-01-13T05:33:09;3.70;3.47;2.98;2.25;17.98;17.96;17.85;17.23;13.85;0.68
74572;SPS30;63071;51.526;-0.134;2023-01-13T05:35:39;3.79;3.54;3.00;2.22;17.78;17.75;17.63;16.96;13.55;0.70
74572;SPS30;63071;51.526;-0.134;2023-01-13T05:38:05;3.96;3.69;3.11;2.28;18.22;18.20;18.07;17.35;13.80;0.71
74572;SPS30;63071;51.526;-0.134;2023-01-13T05:40:31;4.07;3.80;3.22;2.39;19.10;19.07;18.95;18.23;14.55;0.70
74572;SPS30;63071;51.526;-0.134;2023-01-13T05:43:16;3.89;3.66;3.15;2.40;19.18;19.16;19.04;18.41;14.84;0.68
74572;SPS30;63071;51.526;-0.134;2023-01-13T05:48:34;3.52;3.31;2.86;2.20;17.61;17.59;17.49;16.93;13.68;0.67
74572;SPS30;63071;51.526;-0.134;2023-01-13T05:51:02;3.46;3.27;2.86;2.24;17.96;17.94;17.85;17.34;14.09;0.67
74572;SPS30;63071;51.526;-0.134;2023-01-13T05:53:29;3.31;3.13;2.74;2.15;17.21;17.19;17.11;16.62;13.51;0.68
74572;SPS30;63071;51.526;-0.134;2023-01-13T05:55:56;3.65;3.44;2.98;2.31;18.46;18.43;18.33;17.77;14.38;0.69
74572;SPS30;63071;51.526;-0.134;2023-01-13T05:58:22;3.65;3.42;2.91;2.18;17.43;17.40;17.29;16.67;13.35;0.70
74572;SPS30;63071;51.526;-0.134;2023-01-13T06:00:50;3.82;3.56;2.99;2.18;17.47;17.44;17.32;16.62;13.21;0.71
74572;SPS30;63071;51.526;-0.134;2023-01-13T06:03:16;3.71;3.47;2.97;2.23;17.85;17.82;17.71;17.08;13.71;0.69
74572;SPS30;63071;51.526;-0.134;2023-01-13T06:05:44;3.79;3.56;3.06;2.32;18.55;18.53;18.41;17.79;14.31;0.69
74572;SPS30;63071;51.526;-0.134;2023-01-13T06:08:11;3.86;3.62;3.10;2.33;18.66;18.64;18.52;17.87;14.35;0.69
74572;SPS30;63071;51.526;-0.134;2023-01-13T06:10:36;3.60;3.37;2.89;2.18;17.43;17.40;17.30;16.70;13.41;0.69
74572;SPS30;63071;51.526;-0.134;2023-01-13T06:13:02;3.13;2.94;2.53;1.92;15.35;15.33;15.24;14.73;11.85;0.70
74572;SPS30;63071;51.526;-0.134;2023-01-13T06:15:29;3.40;3.19;2.75;2.09;16.74;16.72;16.62;16.07;12.95;0.70
74572;SPS30;63071;51.526;-0.134;2023-01-13T06:17:55;3.66;3.42;2.90;2.15;17.20;17.18;17.06;16.42;13.12;0.71
74572;SPS30;63071;51.526;-0.134;2023-01-13T06:20:21;3.46;3.24;2.75;2.05;16.40;16.38;16.27;15.67;12.54;0.70
74572;SPS30;63071;51.526;-0.134;2023-01-13T06:22:48;3.64;3.40;2.89;2.15;17.24;17.21;17.10;16.47;13.17;0.70
74572;SPS30;63071;51.526;-0.134;2023-01-13T06:26:00;3.70;3.44;2.88;2.09;16.73;16.70;16.58;15.90;12.60;0.73
74572;SPS30;63071;51.526;-0.134;2023-01-13T06:28:13;3.22;3.00;2.52;1.84;14.73;14.71;14.60;14.02;11.14;0.73
74572;SPS30;63071;51.526;-0.134;2023-01-13T06:30:40;3.52;3.30;2.83;2.13;17.05;17.03;16.92;16.33;13.12;0.71
74572;SPS30;63071;51.526;-0.134;2023-01-13T06:33:14;3.34;3.12;2.65;1.96;15.72;15.69;15.59;15.00;11.98;0.73
74572;SPS30;63071;51.526;-0.134;2023-01-13T06:35:47;3.89;3.62;3.05;2.23;17.87;17.84;17.72;17.01;13.53;0.73
74572;SPS30;63071;51.526;-0.134;2023-01-13T06:38:18;3.46;3.25;2.81;2.15;17.19;17.17;17.07;16.52;13.33;0.69
74572;SPS30;63071;51.526;-0.134;2023-01-13T06:40:48;3.51;3.30;2.87;2.21;17.71;17.69;17.59;17.04;13.79;0.69
74572;SPS30;63071;51.526;-0.134;2023-01-13T06:43:14;3.60;3.36;2.86;2.12;16.99;16.97;16.85;16.23;12.97;0.72
74572;SPS30;63071;51.526;-0.134;2023-01-13T06:45:58;3.37;3.16;2.71;2.05;16.37;16.35;16.25;15.68;12.60;0.70
74572;SPS30;63071;51.526;-0.134;2023-01-13T06:48:26;3.61;3.41;2.98;2.32;18.57;18.55;18.45;17.91;14.54;0.66
74572;SPS30;63071;51.526;-0.134;2023-01-13T06:50:57;2.99;2.82;2.45;1.90;15.19;15.17;15.09;14.63;11.85;0.66
74572;SPS30;63071;51.526;-0.134;2023-01-13T06:53:23;3.07;2.89;2.49;1.89;15.16;15.14;15.05;14.55;11.72;0.69
74572;SPS30;63071;51.526;-0.134;2023-01-13T06:55:48;3.29;3.11;2.71;2.11;16.87;16.85;16.76;16.26;13.19;0.68
74572;SPS30;63071;51.526;-0.134;2023-01-13T06:58:14;3.20;3.02;2.63;2.04;16.35;16.33;16.24;15.75;12.77;0.68
74572;SPS30;63071;51.526;-0.134;2023-01-13T07:00:39;3.54;3.31;2.83;2.13;17.06;17.03;16.93;16.33;13.11;0.70
74572;SPS30;63071;51.526;-0.134;2023-01-13T07:03:06;3.72;3.47;2.94;2.17;17.38;17.35;17.23;16.58;13.23;0.71
74572;SPS30;63071;51.526;-0.134;2023-01-13T07:05:37;4.00;3.74;3.18;2.38;19.03;19.00;18.87;18.19;14.56;0.69
74572;SPS30;63071;51.526;-0.134;2023-01-13T07:08:03;3.36;3.15;2.70;2.05;16.41;16.38;16.29;15.73;12.66;0.69
74572;SPS30;63071;51.526;-0.134;2023-01-13T07:10:29;4.06;3.79;3.22;2.40;19.21;19.18;19.06;18.35;14.68;0.72
74572;SPS30;63071;51.526;-0.134;2023-01-13T07:12:58;3.54;3.29;2.75;1.99;15.90;15.87;15.76;15.09;11.95;0.75
74572;SPS30;63071;51.526;-0.134;2023-01-13T07:15:51;3.56;3.31;2.77;2.00;16.00;15.98;15.86;15.19;12.03;0.74
74572;SPS30;63071;51.526;-0.134;2023-01-13T07:18:20;3.60;3.35;2.82;2.07;16.53;16.51;16.39;15.74;12.51;0.73
74572;SPS30;63071;51.526;-0.134;2023-01-13T07:20:56;3.91;3.62;3.01;2.15;17.22;17.19;17.06;16.31;12.87;0.75
74572;SPS30;63071;51.526;-0.134;2023-01-13T07:23:23;3.74;3.46;2.87;2.04;16.33;16.31;16.18;15.45;12.16;0.76
74572;SPS30;63071;51.526;-0.134;2023-01-13T07:25:53;3.77;3.48;2.85;1.97;15.80;15.77;15.63;14.86;11.59;0.76
74572;SPS30;63071;51.526;-0.134;2023-01-13T07:28:19;3.97;3.66;3.00;2.08;16.67;16.63;16.49;15.68;12.24;0.76
74572;SPS30;63071;51.526;-0.134;2023-01-13T07:30:44;3.91;3.61;2.96;2.05;16.46;16.43;16.29;15.49;12.10;0.76
74572;SPS30;63071;51.526;-0.134;2023-01-13T07:33:10;3.65;3.40;2.86;2.09;16.75;16.72;16.60;15.94;12.68;0.71
74572;SPS30;63071;51.526;-0.134;2023-01-13T07:35:35;3.52;3.27;2.72;1.95;15.64;15.62;15.50;14.83;11.71;0.73
74572;SPS30;63071;51.526;-0.134;2023-01-13T07:38:01;3.62;3.36;2.80;2.01;16.12;16.09;15.97;15.28;12.08;0.74
74572;SPS30;63071;51.526;-0.134;2023-01-13T07:40:26;3.87;3.60;3.01;2.17;17.38;17.35;17.22;16.49;13.05;0.75
74572;SPS30;63071;51.526;-0.134;2023-01-13T07:42:52;3.62;3.35;2.78;1.98;15.86;15.83;15.70;15.00;11.82;0.75
74572;SPS30;63071;51.526;-0.134;2023-01-13T07:45:36;3.70;3.41;2.79;1.93;15.50;15.47;15.33;14.58;11.38;0.77
74572;SPS30;63071;51.526;-0.134;2023-01-13T07:48:01;4.25;3.93;3.24;2.29;18.31;18.28;18.13;17.29;13.57;0.76
74572;SPS30;63071;51.526;-0.134;2023-01-13T07:50:26;3.99;3.69;3.06;2.16;17.34;17.31;17.17;16.39;12.89;0.75
74572;SPS30;63071;51.526;-0.134;2023-01-13T07:52:52;3.63;3.37;2.81;2.02;16.20;16.17;16.05;15.36;12.14;0.73
74572;SPS30;63071;51.526;-0.134;2023-01-13T07:55:21;3.41;3.16;2.61;1.84;14.74;14.72;14.60;13.93;10.94;0.75
74572;SPS30;63071;51.526;-0.134;2023-01-13T07:57:47;3.92;3.61;2.95;2.04;16.32;16.29;16.15;15.35;11.96;0.77
74572;SPS30;63071;51.526;-0.134;2023-01-13T08:00:13;3.89;3.60;2.98;2.11;16.91;16.88;16.74;15.98;12.57;0.75
74572;SPS30;63071;51.526;-0.134;2023-01-13T08:02:39;3.68;3.42;2.86;2.07;16.56;16.53;16.41;15.72;12.45;0.73
74572;SPS30;63071;51.526;-0.134;2023-01-13T08:05:04;3.56;3.31;2.79;2.04;16.33;16.30;16.19;15.54;12.36;0.73
74572;SPS30;63071;51.526;-0.134;2023-01-13T08:07:30;3.46;3.23;2.74;2.02;16.20;16.17;16.06;15.45;12.33;0.73
74572;SPS30;63071;51.526;-0.134;2023-01-13T08:09:56;3.05;2.86;2.45;1.85;14.78;14.76;14.67;14.16;11.37;0.70
74572;SPS30;63071;51.526;-0.134;2023-01-13T08:12:21;3.53;3.32;2.86;2.18;17.45;17.43;17.33;16.76;13.51;0.70
74572;SPS30;63071;51.526;-0.134;2023-01-13T08:15:06;3.48;3.26;2.78;2.08;16.66;16.64;16.53;15.94;12.77;0.71
74572;SPS30;63071;51.526;-0.134;2023-01-13T08:17:34;3.38;3.16;2.71;2.05;16.40;16.37;16.27;15.71;12.63;0.70
74572;SPS30;63071;51.526;-0.134;2023-01-13T08:20:00;3.49;3.28;2.82;2.15;17.23;17.21;17.10;16.54;13.33;0.70
74572;SPS30;63071;51.526;-0.134;2023-01-13T08:22:26;3.51;3.29;2.81;2.11;16.87;16.85;16.74;16.15;12.95;0.71
74572;SPS30;63071;51.526;-0.134;2023-01-13T08:24:51;2.91;2.73;2.34;1.77;14.17;14.15;14.07;13.59;10.93;0.69
74572;SPS30;63071;51.526;-0.134;2023-01-13T08:27:16;3.33;3.11;2.63;1.95;15.58;15.56;15.45;14.86;11.86;0.71
74572;SPS30;63071;51.526;-0.134;2023-01-13T08:29:44;3.80;3.54;2.97;2.16;17.33;17.30;17.17;16.48;13.09;0.72
74572;SPS30;63071;51.526;-0.134;2023-01-13T08:32:09;3.45;3.20;2.66;1.91;15.30;15.27;15.15;14.50;11.45;0.74
74572;SPS30;63071;51.526;-0.134;2023-01-13T08:34:35;4.08;3.78;3.12;2.21;17.71;17.68;17.54;16.74;13.16;0.74
74572;SPS30;63071;51.526;-0.134;2023-01-13T08:37:00;3.91;3.62;3.00;2.12;16.98;16.95;16.81;16.05;12.61;0.74
74572;SPS30;63071;51.526;-0.134;2023-01-13T08:39:26;4.00;3.71;3.08;2.20;17.59;17.56;17.42;16.65;13.13;0.74
74572;SPS30;63071;51.526;-0.134;2023-01-13T08:41:51;3.70;3.43;2.83;2.01;16.07;16.04;15.91;15.19;11.94;0.75
74572;SPS30;63071;51.526;-0.134;2023-01-13T08:44:20;3.53;3.25;2.65;1.83;14.64;14.62;14.48;13.76;10.71;0.77
74572;SPS30;63071;51.526;-0.134;2023-01-13T08:46:50;3.63;3.35;2.75;1.91;15.29;15.26;15.13;14.40;11.24;0.77
74572;SPS30;63071;51.526;-0.134;2023-01-13T08:49:16;3.97;3.66;2.99;2.07;16.58;16.55;16.40;15.59;12.15;0.78
74572;SPS30;63071;51.526;-0.134;2023-01-13T08:51:42;3.82;3.53;2.89;2.01;16.07;16.04;15.90;15.13;11.81;0.77
74572;SPS30;63071;51.526;-0.134;2023-01-13T08:54:09;3.67;3.39;2.80;1.98;15.87;15.85;15.72;15.00;11.78;0.76
74572;SPS30;63071;51.526;-0.134;2023-01-13T08:56:35;3.48;3.21;2.62;1.81;14.53;14.50;14.37;13.66;10.64;0.77
74572;SPS30;63071;51.526;-0.134;2023-01-13T08:59:00;3.54;3.27;2.70;1.89;15.17;15.14;15.02;14.31;11.22;0.75
74572;SPS30;63071;51.526;-0.134;2023-01-13T09:01:26;3.68;3.40;2.80;1.96;15.67;15.64;15.51;14.78;11.57;0.74
74572;SPS30;63071;51.526;-0.134;2023-01-13T09:03:53;3.64;3.38;2.83;2.06;16.46;16.44;16.32;15.64;12.40;0.72
74572;SPS30;63071;51.526;-0.134;2023-01-13T09:06:19;3.40;3.18;2.70;2.01;16.13;16.10;16.00;15.41;12.33;0.71
74572;SPS30;63071;51.526;-0.134;2023-01-13T09:08:44;3.85;3.59;3.03;2.23;17.82;17.80;17.67;16.98;13.52;0.72
74572;SPS30;63071;51.526;-0.134;2023-01-13T09:11:23;3.42;3.19;2.70;1.99;15.96;15.94;15.83;15.22;12.14;0.72
74572;SPS30;63071;51.526;-0.134;2023-01-13T09:14:15;3.48;3.25;2.75;2.03;16.29;16.26;16.15;15.54;12.41;0.71
74572;SPS30;63071;51.526;-0.134;2023-01-13T09:16:45;3.63;3.38;2.84;2.07;16.59;16.56;16.45;15.79;12.54;0.71
74572;SPS30;63071;51.526;-0.134;2023-01-13T09:19:11;3.43;3.20;2.71;2.00;15.98;15.96;15.85;15.24;12.15;0.71
74572;SPS30;63071;51.526;-0.134;2023-01-13T09:21:36;3.34;3.14;2.70;2.05;16.37;16.35;16.25;15.70;12.64;0.68
74572;SPS30;63071;51.526;-0.134;2023-01-13T09:24:01;3.03;2.83;2.39;1.77;14.14;14.12;14.02;13.49;10.76;0.70
74572;SPS30;63071;51.526;-0.134;2023-01-13T09:26:27;3.30;3.09;2.64;1.98;15.82;15.80;15.70;15.14;12.14;0.69
74572;SPS30;63071;51.526;-0.134;2023-01-13T09:28:53;2.91;2.74;2.38;1.83;14.67;14.65;14.57;14.11;11.42;0.68
74572;SPS30;63071;51.526;-0.134;2023-01-13T09:31:18;3.60;3.37;2.89;2.18;17.41;17.39;17.28;16.68;13.39;0.70
74572;SPS30;63071;51.526;-0.134;2023-01-13T09:33:43;3.02;2.84;2.44;1.87;14.93;14.91;14.83;14.34;11.56;0.68
74572;SPS30;63071;51.526;-0.134;2023-01-13T09:36:28;3.55;3.32;2.83;2.11;16.87;16.85;16.74;16.12;12.90;0.71
74572;SPS30;63071;51.526;-0.134;2023-01-13T09:38:53;3.54;3.28;2.74;1.96;15.73;15.70;15.58;14.91;11.78;0.72
74572;SPS30;63071;51.526;-0.134;2023-01-13T09:41:19;3.17;2.95;2.49;1.82;14.54;14.52;14.41;13.84;11.00;0.71
74572;SPS30;63071;51.526;-0.134;2023-01-13T09:44:08;3.44;3.21;2.70;1.99;15.91;15.88;15.77;15.15;12.07;0.71
74572;SPS30;63071;51.526;-0.134;2023-01-13T09:46:42;3.64;3.40;2.87;2.12;16.98;16.95;16.83;16.19;12.91;0.71